sensor_id;sensor_type;location;lat;lon;timestamp;P1;durP1;ratioP1;P2;durP2;ratioP2
3427;SDS011;1727;42.624;23.406;2023-04-25T00:01:07;3.13;;;2.93;;
3427;SDS011;1727;42.624;23.406;2023-04-25T00:03:34;4.00;;;3.70;;
3427;SDS011;1727;42.624;23.406;2023-04-25T00:06:01;5.73;;;4.00;;
3427;SDS011;1727;42.624;23.406;2023-04-25T00:08:29;5.60;;;3.80;;
3427;SDS011;1727;42.624;23.406;2023-04-25T00:10:56;6.17;;;4.50;;
3427;SDS011;1727;42.624;23.406;2023-04-25T00:13:23;6.23;;;3.67;;
3427;SDS011;1727;42.624;23.406;2023-04-25T00:15:50;4.20;;;3.77;;
3427;SDS011;1727;42.624;23.406;2023-04-25T00:18:18;4.97;;;4.47;;
3427;SDS011;1727;42.624;23.406;2023-04-25T00:20:45;6.10;;;4.70;;
3427;SDS011;1727;42.624;23.406;2023-04-25T00:23:12;5.43;;;4.83;;
3427;SDS011;1727;42.624;23.406;2023-04-25T00:25:43;5.83;;;3.77;;
3427;SDS011;1727;42.624;23.406;2023-04-25T00:28:10;5.95;;;5.45;;
3427;SDS011;1727;42.624;23.406;2023-04-25T00:30:37;6.50;;;5.90;;
3427;SDS011;1727;42.624;23.406;2023-04-25T00:33:04;9.13;;;6.37;;
3427;SDS011;1727;42.624;23.406;2023-04-25T00:35:31;9.30;;;5.90;;
3427;SDS011;1727;42.624;23.406;2023-04-25T00:37:58;7.23;;;6.00;;
3427;SDS011;1727;42.624;23.406;2023-04-25T00:40:25;5.57;;;5.10;;
3427;SDS011;1727;42.624;23.406;2023-04-25T00:42:53;5.40;;;4.90;;
3427;SDS011;1727;42.624;23.406;2023-04-25T00:45:20;8.37;;;5.17;;
3427;SDS011;1727;42.624;23.406;2023-04-25T00:47:47;5.87;;;5.27;;
3427;SDS011;1727;42.624;23.406;2023-04-25T00:50:14;8.83;;;6.20;;
3427;SDS011;1727;42.624;23.406;2023-04-25T00:52:41;5.73;;;5.23;;
3427;SDS011;1727;42.624;23.406;2023-04-25T00:55:10;8.00;;;6.10;;
3427;SDS011;1727;42.624;23.406;2023-04-25T00:57:38;6.83;;;6.13;;
3427;SDS011;1727;42.624;23.406;2023-04-25T01:00:08;7.10;;;5.90;;
3427;SDS011;1727;42.624;23.406;2023-04-25T01:02:36;14.03;;;7.33;;
3427;SDS011;1727;42.624;23.406;2023-04-25T01:05:04;8.33;;;6.47;;
3427;SDS011;1727;42.624;23.406;2023-04-25T01:07:31;7.63;;;6.13;;
3427;SDS011;1727;42.624;23.406;2023-04-25T01:09:58;7.07;;;6.37;;
3427;SDS011;1727;42.624;23.406;2023-04-25T01:12:25;10.97;;;6.80;;
3427;SDS011;1727;42.624;23.406;2023-04-25T01:14:51;6.00;;;5.40;;
3427;SDS011;1727;42.624;23.406;2023-04-25T01:17:20;5.90;;;5.30;;
3427;SDS011;1727;42.624;23.406;2023-04-25T01:19:46;5.93;;;5.33;;
3427;SDS011;1727;42.624;23.406;2023-04-25T01:22:15;6.17;;;5.57;;
3427;SDS011;1727;42.624;23.406;2023-04-25T01:24:42;7.23;;;6.20;;
3427;SDS011;1727;42.624;23.406;2023-04-25T01:27:09;5.30;;;4.80;;
3427;SDS011;1727;42.624;23.406;2023-04-25T01:29:37;7.30;;;5.60;;
3427;SDS011;1727;42.624;23.406;2023-04-25T01:32:04;6.10;;;5.50;;
3427;SDS011;1727;42.624;23.406;2023-04-25T01:34:31;7.40;;;5.40;;
3427;SDS011;1727;42.624;23.406;2023-04-25T01:36:59;5.03;;;4.60;;
3427;SDS011;1727;42.624;23.406;2023-04-25T01:39:28;4.87;;;4.13;;
3427;SDS011;1727;42.624;23.406;2023-04-25T01:41:55;5.33;;;4.83;;
3427;SDS011;1727;42.624;23.406;2023-04-25T01:44:22;6.33;;;5.80;;
3427;SDS011;1727;42.624;23.406;2023-04-25T01:46:49;5.60;;;4.13;;
3427;SDS011;1727;42.624;23.406;2023-04-25T01:49:16;5.33;;;4.80;;
3427;SDS011;1727;42.624;23.406;2023-04-25T01:51:42;5.90;;;5.30;;
3427;SDS011;1727;42.624;23.406;2023-04-25T01:54:10;5.90;;;4.60;;
3427;SDS011;1727;42.624;23.406;2023-04-25T01:56:38;5.30;;;4.80;;
3427;SDS011;1727;42.624;23.406;2023-04-25T01:59:05;5.73;;;5.23;;
3427;SDS011;1727;42.624;23.406;2023-04-25T02:01:32;7.83;;;6.07;;
3427;SDS011;1727;42.624;23.406;2023-04-25T02:03:59;5.93;;;5.00;;
3427;SDS011;1727;42.624;23.406;2023-04-25T02:06:26;5.40;;;4.93;;
3427;SDS011;1727;42.624;23.406;2023-04-25T02:08:52;6.20;;;5.60;;
3427;SDS011;1727;42.624;23.406;2023-04-25T02:11:19;7.37;;;5.07;;
3427;SDS011;1727;42.624;23.406;2023-04-25T02:13:47;7.07;;;5.70;;
3427;SDS011;1727;42.624;23.406;2023-04-25T02:16:14;7.27;;;6.23;;
3427;SDS011;1727;42.624;23.406;2023-04-25T02:18:41;6.53;;;5.93;;
3427;SDS011;1727;42.624;23.406;2023-04-25T02:21:08;6.23;;;5.63;;
3427;SDS011;1727;42.624;23.406;2023-04-25T02:23:34;6.57;;;5.93;;
3427;SDS011;1727;42.624;23.406;2023-04-25T02:26:01;5.80;;;5.30;;
3427;SDS011;1727;42.624;23.406;2023-04-25T02:28:28;9.87;;;7.20;;
3427;SDS011;1727;42.624;23.406;2023-04-25T02:30:56;8.13;;;6.10;;
3427;SDS011;1727;42.624;23.406;2023-04-25T02:33:23;7.17;;;6.47;;
3427;SDS011;1727;42.624;23.406;2023-04-25T02:35:50;8.40;;;5.97;;
3427;SDS011;1727;42.624;23.406;2023-04-25T02:38:17;8.03;;;6.50;;
3427;SDS011;1727;42.624;23.406;2023-04-25T02:40:43;8.43;;;7.63;;
3427;SDS011;1727;42.624;23.406;2023-04-25T02:43:10;9.60;;;7.30;;
3427;SDS011;1727;42.624;23.406;2023-04-25T02:45:37;7.37;;;6.63;;
3427;SDS011;1727;42.624;23.406;2023-04-25T02:48:06;12.20;;;6.87;;
3427;SDS011;1727;42.624;23.406;2023-04-25T02:50:32;8.27;;;6.60;;
3427;SDS011;1727;42.624;23.406;2023-04-25T02:52:59;7.10;;;6.40;;
3427;SDS011;1727;42.624;23.406;2023-04-25T02:55:26;8.20;;;6.40;;
3427;SDS011;1727;42.624;23.406;2023-04-25T02:57:53;7.40;;;6.70;;
3427;SDS011;1727;42.624;23.406;2023-04-25T03:00:20;10.43;;;6.97;;
3427;SDS011;1727;42.624;23.406;2023-04-25T03:02:48;6.97;;;5.90;;
3427;SDS011;1727;42.624;23.406;2023-04-25T03:05:17;7.93;;;6.30;;
3427;SDS011;1727;42.624;23.406;2023-04-25T03:07:44;10.30;;;6.50;;
3427;SDS011;1727;42.624;23.406;2023-04-25T03:10:11;8.17;;;6.40;;
3427;SDS011;1727;42.624;23.406;2023-04-25T03:12:38;13.43;;;7.03;;
3427;SDS011;1727;42.624;23.406;2023-04-25T03:15:05;10.73;;;7.80;;
3427;SDS011;1727;42.624;23.406;2023-04-25T03:17:32;11.37;;;7.53;;
3427;SDS011;1727;42.624;23.406;2023-04-25T03:19:59;8.53;;;7.50;;
3427;SDS011;1727;42.624;23.406;2023-04-25T03:22:28;10.73;;;7.93;;
3427;SDS011;1727;42.624;23.406;2023-04-25T03:24:54;12.13;;;8.60;;
3427;SDS011;1727;42.624;23.406;2023-04-25T03:27:21;10.83;;;7.43;;
3427;SDS011;1727;42.624;23.406;2023-04-25T03:29:48;12.27;;;8.70;;
3427;SDS011;1727;42.624;23.406;2023-04-25T03:32:15;14.43;;;8.90;;
3427;SDS011;1727;42.624;23.406;2023-04-25T03:34:42;11.30;;;8.80;;
3427;SDS011;1727;42.624;23.406;2023-04-25T03:37:08;12.40;;;8.43;;
3427;SDS011;1727;42.624;23.406;2023-04-25T03:39:36;12.80;;;8.63;;
3427;SDS011;1727;42.624;23.406;2023-04-25T03:42:03;14.03;;;10.10;;
3427;SDS011;1727;42.624;23.406;2023-04-25T03:44:30;12.10;;;9.13;;
3427;SDS011;1727;42.624;23.406;2023-04-25T03:46:57;13.10;;;10.03;;
3427;SDS011;1727;42.624;23.406;2023-04-25T03:49:24;13.20;;;10.70;;
3427;SDS011;1727;42.624;23.406;2023-04-25T03:51:51;13.67;;;11.20;;
3427;SDS011;1727;42.624;23.406;2023-04-25T03:54:18;16.60;;;11.03;;
3427;SDS011;1727;42.624;23.406;2023-04-25T03:56:46;13.53;;;11.70;;
3427;SDS011;1727;42.624;23.406;2023-04-25T03:59:13;13.07;;;11.00;;
3427;SDS011;1727;42.624;23.406;2023-04-25T04:01:40;13.87;;;9.90;;
3427;SDS011;1727;42.624;23.406;2023-04-25T04:04:07;11.50;;;9.50;;
3427;SDS011;1727;42.624;23.406;2023-04-25T04:06:34;14.57;;;11.63;;
3427;SDS011;1727;42.624;23.406;2023-04-25T04:09:01;17.03;;;9.57;;
3427;SDS011;1727;42.624;23.406;2023-04-25T04:11:28;12.70;;;9.97;;
3427;SDS011;1727;42.624;23.406;2023-04-25T04:13:57;13.87;;;9.10;;
3427;SDS011;1727;42.624;23.406;2023-04-25T04:16:24;13.23;;;9.47;;
3427;SDS011;1727;42.624;23.406;2023-04-25T04:18:51;10.10;;;9.10;;
3427;SDS011;1727;42.624;23.406;2023-04-25T04:21:18;13.83;;;12.07;;
3427;SDS011;1727;42.624;23.406;2023-04-25T04:23:44;15.43;;;13.37;;
3427;SDS011;1727;42.624;23.406;2023-04-25T04:26:11;16.87;;;12.80;;
3427;SDS011;1727;42.624;23.406;2023-04-25T04:28:40;22.20;;;14.57;;
3427;SDS011;1727;42.624;23.406;2023-04-25T04:31:08;23.00;;;15.00;;
3427;SDS011;1727;42.624;23.406;2023-04-25T04:33:35;19.93;;;13.93;;
3427;SDS011;1727;42.624;23.406;2023-04-25T04:36:03;20.17;;;13.70;;
3427;SDS011;1727;42.624;23.406;2023-04-25T04:38:32;18.10;;;14.27;;
3427;SDS011;1727;42.624;23.406;2023-04-25T04:40:59;19.80;;;14.47;;
3427;SDS011;1727;42.624;23.406;2023-04-25T04:43:26;19.07;;;14.30;;
3427;SDS011;1727;42.624;23.406;2023-04-25T04:45:53;26.10;;;15.10;;
3427;SDS011;1727;42.624;23.406;2023-04-25T04:48:22;22.20;;;15.07;;
3427;SDS011;1727;42.624;23.406;2023-04-25T04:50:49;20.93;;;14.80;;
3427;SDS011;1727;42.624;23.406;2023-04-25T04:53:16;23.63;;;15.70;;
3427;SDS011;1727;42.624;23.406;2023-04-25T04:55:43;20.97;;;15.13;;
3427;SDS011;1727;42.624;23.406;2023-04-25T04:58:11;23.17;;;14.90;;
3427;SDS011;1727;42.624;23.406;2023-04-25T05:00:38;15.87;;;12.97;;
3427;SDS011;1727;42.624;23.406;2023-04-25T05:03:05;15.50;;;12.20;;
3427;SDS011;1727;42.624;23.406;2023-04-25T05:05:33;17.27;;;12.97;;
3427;SDS011;1727;42.624;23.406;2023-04-25T05:08:00;22.13;;;14.90;;
3427;SDS011;1727;42.624;23.406;2023-04-25T05:10:26;15.53;;;12.43;;
3427;SDS011;1727;42.624;23.406;2023-04-25T05:12:53;17.70;;;12.53;;
3427;SDS011;1727;42.624;23.406;2023-04-25T05:15:20;15.30;;;10.97;;
3427;SDS011;1727;42.624;23.406;2023-04-25T05:17:47;15.07;;;10.83;;
3427;SDS011;1727;42.624;23.406;2023-04-25T05:20:13;14.70;;;10.37;;
3427;SDS011;1727;42.624;23.406;2023-04-25T05:22:42;14.10;;;10.47;;
3427;SDS011;1727;42.624;23.406;2023-04-25T05:25:08;12.17;;;10.47;;
3427;SDS011;1727;42.624;23.406;2023-04-25T05:27:36;15.60;;;10.60;;
3427;SDS011;1727;42.624;23.406;2023-04-25T05:30:03;11.10;;;9.40;;
3427;SDS011;1727;42.624;23.406;2023-04-25T05:32:31;11.93;;;9.40;;
3427;SDS011;1727;42.624;23.406;2023-04-25T05:34:57;9.27;;;8.17;;
3427;SDS011;1727;42.624;23.406;2023-04-25T05:37:24;10.30;;;8.67;;
3427;SDS011;1727;42.624;23.406;2023-04-25T05:39:52;10.83;;;7.93;;
3427;SDS011;1727;42.624;23.406;2023-04-25T05:42:19;9.03;;;7.80;;
3427;SDS011;1727;42.624;23.406;2023-04-25T05:44:49;13.50;;;11.20;;
3427;SDS011;1727;42.624;23.406;2023-04-25T05:47:15;11.20;;;10.00;;
3427;SDS011;1727;42.624;23.406;2023-04-25T05:49:42;16.60;;;9.27;;
3427;SDS011;1727;42.624;23.406;2023-04-25T05:52:09;13.83;;;10.20;;
3427;SDS011;1727;42.624;23.406;2023-04-25T05:54:36;11.40;;;8.67;;
3427;SDS011;1727;42.624;23.406;2023-04-25T05:57:04;13.17;;;10.10;;
3427;SDS011;1727;42.624;23.406;2023-04-25T05:59:31;11.70;;;8.87;;
3427;SDS011;1727;42.624;23.406;2023-04-25T06:01:58;10.80;;;9.20;;
3427;SDS011;1727;42.624;23.406;2023-04-25T06:04:25;10.70;;;8.33;;
3427;SDS011;1727;42.624;23.406;2023-04-25T06:06:52;14.47;;;8.97;;
3427;SDS011;1727;42.624;23.406;2023-04-25T06:09:19;10.70;;;9.53;;
3427;SDS011;1727;42.624;23.406;2023-04-25T06:11:46;12.40;;;10.67;;
3427;SDS011;1727;42.624;23.406;2023-04-25T06:14:14;13.43;;;9.90;;
3427;SDS011;1727;42.624;23.406;2023-04-25T06:16:41;11.60;;;8.97;;
3427;SDS011;1727;42.624;23.406;2023-04-25T06:19:08;11.20;;;9.10;;
3427;SDS011;1727;42.624;23.406;2023-04-25T06:21:35;12.20;;;10.00;;
3427;SDS011;1727;42.624;23.406;2023-04-25T06:24:03;14.23;;;10.00;;
3427;SDS011;1727;42.624;23.406;2023-04-25T06:26:30;13.20;;;10.37;;
3427;SDS011;1727;42.624;23.406;2023-04-25T06:28:57;11.63;;;10.40;;
3427;SDS011;1727;42.624;23.406;2023-04-25T06:31:25;12.70;;;9.80;;
3427;SDS011;1727;42.624;23.406;2023-04-25T06:33:53;12.37;;;10.63;;
3427;SDS011;1727;42.624;23.406;2023-04-25T06:36:20;12.60;;;10.00;;
3427;SDS011;1727;42.624;23.406;2023-04-25T06:38:50;10.00;;;9.00;;
3427;SDS011;1727;42.624;23.406;2023-04-25T06:41:16;17.20;;;9.47;;
3427;SDS011;1727;42.624;23.406;2023-04-25T06:43:43;14.40;;;10.73;;
3427;SDS011;1727;42.624;23.406;2023-04-25T06:46:10;11.33;;;10.13;;
3427;SDS011;1727;42.624;23.406;2023-04-25T06:48:38;10.70;;;9.23;;
3427;SDS011;1727;42.624;23.406;2023-04-25T06:51:05;13.97;;;11.70;;
3427;SDS011;1727;42.624;23.406;2023-04-25T06:53:32;15.40;;;12.43;;
3427;SDS011;1727;42.624;23.406;2023-04-25T06:55:59;13.07;;;9.80;;
3427;SDS011;1727;42.624;23.406;2023-04-25T06:58:25;13.30;;;10.47;;
3427;SDS011;1727;42.624;23.406;2023-04-25T07:00:52;10.17;;;8.50;;
3427;SDS011;1727;42.624;23.406;2023-04-25T07:03:19;11.73;;;9.20;;
3427;SDS011;1727;42.624;23.406;2023-04-25T07:05:47;10.60;;;8.80;;
3427;SDS011;1727;42.624;23.406;2023-04-25T07:08:14;9.83;;;7.97;;
3427;SDS011;1727;42.624;23.406;2023-04-25T07:10:41;8.03;;;7.30;;
3427;SDS011;1727;42.624;23.406;2023-04-25T07:13:08;8.40;;;7.50;;
3427;SDS011;1727;42.624;23.406;2023-04-25T07:15:35;16.37;;;8.10;;
3427;SDS011;1727;42.624;23.406;2023-04-25T07:18:01;8.03;;;7.20;;
3427;SDS011;1727;42.624;23.406;2023-04-25T07:20:28;8.20;;;7.30;;
3427;SDS011;1727;42.624;23.406;2023-04-25T07:22:57;8.57;;;7.67;;
3427;SDS011;1727;42.624;23.406;2023-04-25T07:25:24;9.60;;;8.60;;
3427;SDS011;1727;42.624;23.406;2023-04-25T07:27:51;8.40;;;7.37;;
3427;SDS011;1727;42.624;23.406;2023-04-25T07:30:17;10.10;;;8.07;;
3427;SDS011;1727;42.624;23.406;2023-04-25T07:32:44;7.80;;;6.93;;
3427;SDS011;1727;42.624;23.406;2023-04-25T07:35:11;8.30;;;7.50;;
3427;SDS011;1727;42.624;23.406;2023-04-25T07:37:38;24.73;;;8.03;;
3427;SDS011;1727;42.624;23.406;2023-04-25T07:40:07;7.37;;;6.57;;
3427;SDS011;1727;42.624;23.406;2023-04-25T07:42:34;9.00;;;7.60;;
3427;SDS011;1727;42.624;23.406;2023-04-25T07:45:01;9.70;;;6.83;;
3427;SDS011;1727;42.624;23.406;2023-04-25T07:47:28;8.13;;;7.33;;
3427;SDS011;1727;42.624;23.406;2023-04-25T07:49:56;7.43;;;6.70;;
3427;SDS011;1727;42.624;23.406;2023-04-25T07:52:23;8.57;;;6.93;;
3427;SDS011;1727;42.624;23.406;2023-04-25T07:54:50;13.40;;;7.50;;
3427;SDS011;1727;42.624;23.406;2023-04-25T07:57:18;7.47;;;6.23;;
3427;SDS011;1727;42.624;23.406;2023-04-25T07:59:45;8.70;;;7.20;;
3427;SDS011;1727;42.624;23.406;2023-04-25T08:02:12;7.47;;;6.77;;
3427;SDS011;1727;42.624;23.406;2023-04-25T08:04:38;6.97;;;6.33;;
3427;SDS011;1727;42.624;23.406;2023-04-25T08:07:05;7.23;;;6.20;;
3427;SDS011;1727;42.624;23.406;2023-04-25T08:09:32;10.50;;;9.40;;
3427;SDS011;1727;42.624;23.406;2023-04-25T08:12:00;5.73;;;5.20;;
3427;SDS011;1727;42.624;23.406;2023-04-25T08:14:29;6.27;;;5.43;;
3427;SDS011;1727;42.624;23.406;2023-04-25T08:17:00;8.10;;;5.87;;
3427;SDS011;1727;42.624;23.406;2023-04-25T08:19:28;7.00;;;6.30;;
3427;SDS011;1727;42.624;23.406;2023-04-25T08:21:55;8.67;;;6.03;;
3427;SDS011;1727;42.624;23.406;2023-04-25T08:24:24;6.33;;;5.27;;
3427;SDS011;1727;42.624;23.406;2023-04-25T08:26:51;5.93;;;5.33;;
3427;SDS011;1727;42.624;23.406;2023-04-25T08:29:19;5.87;;;5.27;;
3427;SDS011;1727;42.624;23.406;2023-04-25T08:31:47;5.90;;;5.33;;
3427;SDS011;1727;42.624;23.406;2023-04-25T08:34:14;16.03;;;7.43;;
3427;SDS011;1727;42.624;23.406;2023-04-25T08:36:40;7.60;;;6.67;;
3427;SDS011;1727;42.624;23.406;2023-04-25T08:39:07;7.07;;;5.77;;
3427;SDS011;1727;42.624;23.406;2023-04-25T08:41:36;5.73;;;5.07;;
3427;SDS011;1727;42.624;23.406;2023-04-25T08:44:03;5.90;;;5.30;;
3427;SDS011;1727;42.624;23.406;2023-04-25T08:46:31;14.73;;;4.93;;
3427;SDS011;1727;42.624;23.406;2023-04-25T08:49:00;5.07;;;4.67;;
3427;SDS011;1727;42.624;23.406;2023-04-25T08:51:29;6.30;;;5.07;;
3427;SDS011;1727;42.624;23.406;2023-04-25T08:54:01;9.20;;;5.23;;
3427;SDS011;1727;42.624;23.406;2023-04-25T08:56:35;4.97;;;4.50;;
3427;SDS011;1727;42.624;23.406;2023-04-25T08:59:02;6.10;;;4.97;;
3427;SDS011;1727;42.624;23.406;2023-04-25T09:01:29;5.33;;;4.87;;
3427;SDS011;1727;42.624;23.406;2023-04-25T09:03:56;5.00;;;4.20;;
3427;SDS011;1727;42.624;23.406;2023-04-25T09:06:25;6.07;;;5.57;;
3427;SDS011;1727;42.624;23.406;2023-04-25T09:08:52;10.07;;;5.67;;
3427;SDS011;1727;42.624;23.406;2023-04-25T09:11:19;6.33;;;5.67;;
3427;SDS011;1727;42.624;23.406;2023-04-25T09:13:46;5.63;;;5.10;;
3427;SDS011;1727;42.624;23.406;2023-04-25T09:16:13;6.33;;;5.70;;
3427;SDS011;1727;42.624;23.406;2023-04-25T09:18:42;8.70;;;6.73;;
3427;SDS011;1727;42.624;23.406;2023-04-25T09:21:09;8.97;;;8.10;;
3427;SDS011;1727;42.624;23.406;2023-04-25T09:23:43;9.57;;;7.10;;
3427;SDS011;1727;42.624;23.406;2023-04-25T09:26:11;7.43;;;6.33;;
3427;SDS011;1727;42.624;23.406;2023-04-25T09:28:40;6.50;;;5.90;;
3427;SDS011;1727;42.624;23.406;2023-04-25T09:31:09;6.30;;;5.70;;
3427;SDS011;1727;42.624;23.406;2023-04-25T09:33:36;4.27;;;3.93;;
3427;SDS011;1727;42.624;23.406;2023-04-25T09:36:06;6.67;;;4.80;;
3427;SDS011;1727;42.624;23.406;2023-04-25T09:38:39;5.30;;;4.90;;
3427;SDS011;1727;42.624;23.406;2023-04-25T09:41:08;4.77;;;4.33;;
3427;SDS011;1727;42.624;23.406;2023-04-25T09:43:38;4.33;;;4.03;;
3427;SDS011;1727;42.624;23.406;2023-04-25T09:46:07;5.70;;;4.30;;
3427;SDS011;1727;42.624;23.406;2023-04-25T09:48:36;5.73;;;4.57;;
3427;SDS011;1727;42.624;23.406;2023-04-25T09:51:06;4.27;;;3.67;;
3427;SDS011;1727;42.624;23.406;2023-04-25T09:53:34;5.67;;;5.10;;
3427;SDS011;1727;42.624;23.406;2023-04-25T09:56:05;7.23;;;6.10;;
3427;SDS011;1727;42.624;23.406;2023-04-25T09:58:33;7.18;;;6.57;;
3427;SDS011;1727;42.624;23.406;2023-04-25T10:01:02;8.07;;;6.50;;
3427;SDS011;1727;42.624;23.406;2023-04-25T10:03:32;7.37;;;6.67;;
3427;SDS011;1727;42.624;23.406;2023-04-25T10:06:00;7.67;;;6.90;;
3427;SDS011;1727;42.624;23.406;2023-04-25T10:08:30;10.30;;;5.80;;
3427;SDS011;1727;42.624;23.406;2023-04-25T10:10:59;6.07;;;5.07;;
3427;SDS011;1727;42.624;23.406;2023-04-25T10:13:29;5.77;;;5.27;;
3427;SDS011;1727;42.624;23.406;2023-04-25T10:16:02;9.53;;;5.60;;
3427;SDS011;1727;42.624;23.406;2023-04-25T10:18:31;6.77;;;6.07;;
3427;SDS011;1727;42.624;23.406;2023-04-25T10:20:59;6.20;;;4.40;;
3427;SDS011;1727;42.624;23.406;2023-04-25T10:23:27;5.53;;;4.27;;
3427;SDS011;1727;42.624;23.406;2023-04-25T10:25:56;5.37;;;4.90;;
3427;SDS011;1727;42.624;23.406;2023-04-25T10:28:23;4.93;;;4.23;;
3427;SDS011;1727;42.624;23.406;2023-04-25T10:30:58;4.60;;;4.20;;
3427;SDS011;1727;42.624;23.406;2023-04-25T10:33:29;5.37;;;3.13;;
3427;SDS011;1727;42.624;23.406;2023-04-25T10:36:08;4.30;;;2.43;;
3427;SDS011;1727;42.624;23.406;2023-04-25T10:38:36;4.00;;;2.40;;
3427;SDS011;1727;42.624;23.406;2023-04-25T10:41:07;3.90;;;3.60;;
3427;SDS011;1727;42.624;23.406;2023-04-25T10:43:36;4.80;;;4.07;;
3427;SDS011;1727;42.624;23.406;2023-04-25T10:46:15;10.93;;;5.97;;
3427;SDS011;1727;42.624;23.406;2023-04-25T10:48:48;4.17;;;3.77;;
3427;SDS011;1727;42.624;23.406;2023-04-25T10:51:16;5.37;;;4.23;;
3427;SDS011;1727;42.624;23.406;2023-04-25T10:53:56;9.57;;;3.67;;
3427;SDS011;1727;42.624;23.406;2023-04-25T10:56:25;6.83;;;2.90;;
3427;SDS011;1727;42.624;23.406;2023-04-25T10:58:55;2.60;;;1.97;;
3427;SDS011;1727;42.624;23.406;2023-04-25T11:01:35;3.30;;;2.30;;
3427;SDS011;1727;42.624;23.406;2023-04-25T11:04:03;5.87;;;2.80;;
3427;SDS011;1727;42.624;23.406;2023-04-25T11:06:32;3.03;;;2.83;;
3427;SDS011;1727;42.624;23.406;2023-04-25T11:09:10;6.50;;;2.97;;
3427;SDS011;1727;42.624;23.406;2023-04-25T11:11:39;3.27;;;2.70;;
3427;SDS011;1727;42.624;23.406;2023-04-25T11:14:06;4.40;;;3.07;;
3427;SDS011;1727;42.624;23.406;2023-04-25T11:16:34;7.00;;;3.10;;
3427;SDS011;1727;42.624;23.406;2023-04-25T11:19:01;5.03;;;3.20;;
3427;SDS011;1727;42.624;23.406;2023-04-25T11:21:28;17.00;;;7.17;;
3427;SDS011;1727;42.624;23.406;2023-04-25T11:23:56;2.37;;;2.17;;
3427;SDS011;1727;42.624;23.406;2023-04-25T11:26:24;2.70;;;2.50;;
3427;SDS011;1727;42.624;23.406;2023-04-25T11:28:51;4.10;;;2.80;;
3427;SDS011;1727;42.624;23.406;2023-04-25T11:31:19;3.73;;;2.90;;
3427;SDS011;1727;42.624;23.406;2023-04-25T11:33:48;2.20;;;2.00;;
3427;SDS011;1727;42.624;23.406;2023-04-25T11:36:16;4.03;;;2.20;;
3427;SDS011;1727;42.624;23.406;2023-04-25T11:38:43;6.67;;;3.03;;
3427;SDS011;1727;42.624;23.406;2023-04-25T11:41:10;3.20;;;2.90;;
3427;SDS011;1727;42.624;23.406;2023-04-25T11:43:37;4.53;;;2.80;;
3427;SDS011;1727;42.624;23.406;2023-04-25T11:46:06;3.97;;;2.83;;
3427;SDS011;1727;42.624;23.406;2023-04-25T11:48:36;4.47;;;3.00;;
3427;SDS011;1727;42.624;23.406;2023-04-25T11:51:05;3.20;;;2.90;;
3427;SDS011;1727;42.624;23.406;2023-04-25T11:53:32;4.93;;;4.17;;
3427;SDS011;1727;42.624;23.406;2023-04-25T11:55:59;8.70;;;3.23;;
3427;SDS011;1727;42.624;23.406;2023-04-25T11:58:26;5.47;;;3.20;;
3427;SDS011;1727;42.624;23.406;2023-04-25T12:00:53;4.33;;;3.80;;
3427;SDS011;1727;42.624;23.406;2023-04-25T12:03:23;3.57;;;3.30;;
3427;SDS011;1727;42.624;23.406;2023-04-25T12:05:52;5.33;;;3.13;;
3427;SDS011;1727;42.624;23.406;2023-04-25T12:08:23;3.43;;;2.50;;
3427;SDS011;1727;42.624;23.406;2023-04-25T12:10:50;3.20;;;2.50;;
3427;SDS011;1727;42.624;23.406;2023-04-25T12:13:17;2.20;;;2.00;;
3427;SDS011;1727;42.624;23.406;2023-04-25T12:15:45;9.90;;;2.63;;
3427;SDS011;1727;42.624;23.406;2023-04-25T12:18:12;4.00;;;2.50;;
3427;SDS011;1727;42.624;23.406;2023-04-25T12:20:39;3.03;;;2.40;;
3427;SDS011;1727;42.624;23.406;2023-04-25T12:23:08;3.93;;;2.43;;
3427;SDS011;1727;42.624;23.406;2023-04-25T12:25:38;2.90;;;2.20;;
3427;SDS011;1727;42.624;23.406;2023-04-25T12:28:10;9.07;;;2.10;;
3427;SDS011;1727;42.624;23.406;2023-04-25T12:30:57;2.10;;;1.90;;
3427;SDS011;1727;42.624;23.406;2023-04-25T12:33:26;2.93;;;2.73;;
3427;SDS011;1727;42.624;23.406;2023-04-25T12:35:54;4.70;;;2.50;;
3427;SDS011;1727;42.624;23.406;2023-04-25T12:38:23;2.27;;;1.87;;
3427;SDS011;1727;42.624;23.406;2023-04-25T12:40:51;2.27;;;2.07;;
3427;SDS011;1727;42.624;23.406;2023-04-25T12:43:18;4.37;;;2.30;;
3427;SDS011;1727;42.624;23.406;2023-04-25T12:45:46;2.60;;;2.40;;
3427;SDS011;1727;42.624;23.406;2023-04-25T12:48:14;3.67;;;3.00;;
3427;SDS011;1727;42.624;23.406;2023-04-25T12:50:41;4.30;;;2.93;;
3427;SDS011;1727;42.624;23.406;2023-04-25T12:53:08;2.20;;;2.00;;
3427;SDS011;1727;42.624;23.406;2023-04-25T12:55:35;2.00;;;1.90;;
3427;SDS011;1727;42.624;23.406;2023-04-25T12:58:03;1.63;;;1.50;;
3427;SDS011;1727;42.624;23.406;2023-04-25T13:00:30;1.80;;;1.70;;
3427;SDS011;1727;42.624;23.406;2023-04-25T13:02:57;1.90;;;1.70;;
3427;SDS011;1727;42.624;23.406;2023-04-25T13:05:24;2.70;;;2.23;;
3427;SDS011;1727;42.624;23.406;2023-04-25T13:07:51;2.90;;;2.10;;
3427;SDS011;1727;42.624;23.406;2023-04-25T13:10:18;3.73;;;1.97;;
3427;SDS011;1727;42.624;23.406;2023-04-25T13:12:45;4.43;;;2.20;;
3427;SDS011;1727;42.624;23.406;2023-04-25T13:15:13;2.63;;;1.53;;
3427;SDS011;1727;42.624;23.406;2023-04-25T13:17:40;2.77;;;1.60;;
3427;SDS011;1727;42.624;23.406;2023-04-25T13:20:08;1.80;;;1.70;;
3427;SDS011;1727;42.624;23.406;2023-04-25T13:22:37;3.57;;;1.50;;
3427;SDS011;1727;42.624;23.406;2023-04-25T13:25:04;3.37;;;1.60;;
3427;SDS011;1727;42.624;23.406;2023-04-25T13:27:32;1.97;;;1.77;;
3427;SDS011;1727;42.624;23.406;2023-04-25T13:30:00;1.83;;;1.73;;
3427;SDS011;1727;42.624;23.406;2023-04-25T13:32:33;2.60;;;2.40;;
3427;SDS011;1727;42.624;23.406;2023-04-25T13:35:02;2.20;;;2.00;;
3427;SDS011;1727;42.624;23.406;2023-04-25T13:37:29;3.90;;;2.30;;
3427;SDS011;1727;42.624;23.406;2023-04-25T13:39:58;3.00;;;2.20;;
3427;SDS011;1727;42.624;23.406;2023-04-25T13:42:25;2.63;;;2.00;;
3427;SDS011;1727;42.624;23.406;2023-04-25T13:44:52;2.20;;;2.00;;
3427;SDS011;1727;42.624;23.406;2023-04-25T13:47:19;2.90;;;1.97;;
3427;SDS011;1727;42.624;23.406;2023-04-25T13:49:47;2.33;;;2.13;;
3427;SDS011;1727;42.624;23.406;2023-04-25T13:52:14;3.70;;;2.00;;
3427;SDS011;1727;42.624;23.406;2023-04-25T13:54:40;2.47;;;2.20;;
3427;SDS011;1727;42.624;23.406;2023-04-25T13:57:07;3.00;;;2.57;;
3427;SDS011;1727;42.624;23.406;2023-04-25T13:59:36;3.07;;;2.67;;
3427;SDS011;1727;42.624;23.406;2023-04-25T14:02:03;3.67;;;2.87;;
3427;SDS011;1727;42.624;23.406;2023-04-25T14:04:29;4.90;;;3.27;;
3427;SDS011;1727;42.624;23.406;2023-04-25T14:06:59;3.20;;;2.70;;
3427;SDS011;1727;42.624;23.406;2023-04-25T14:09:28;8.37;;;3.13;;
3427;SDS011;1727;42.624;23.406;2023-04-25T14:11:58;2.93;;;2.40;;
3427;SDS011;1727;42.624;23.406;2023-04-25T14:14:25;5.67;;;2.50;;
3427;SDS011;1727;42.624;23.406;2023-04-25T14:16:53;6.70;;;3.07;;
3427;SDS011;1727;42.624;23.406;2023-04-25T14:19:20;6.50;;;2.90;;
3427;SDS011;1727;42.624;23.406;2023-04-25T14:21:46;3.33;;;1.77;;
3427;SDS011;1727;42.624;23.406;2023-04-25T14:24:15;3.67;;;2.43;;
3427;SDS011;1727;42.624;23.406;2023-04-25T14:26:43;5.30;;;1.60;;
3427;SDS011;1727;42.624;23.406;2023-04-25T14:29:10;3.37;;;2.73;;
3427;SDS011;1727;42.624;23.406;2023-04-25T14:31:37;4.57;;;2.50;;
3427;SDS011;1727;42.624;23.406;2023-04-25T14:34:05;2.43;;;2.23;;
3427;SDS011;1727;42.624;23.406;2023-04-25T14:36:33;2.60;;;2.33;;
3427;SDS011;1727;42.624;23.406;2023-04-25T14:39:00;4.43;;;2.67;;
3427;SDS011;1727;42.624;23.406;2023-04-25T14:41:28;2.50;;;2.30;;
3427;SDS011;1727;42.624;23.406;2023-04-25T14:43:55;3.17;;;2.57;;
3427;SDS011;1727;42.624;23.406;2023-04-25T14:46:22;3.30;;;2.10;;
3427;SDS011;1727;42.624;23.406;2023-04-25T14:48:49;2.87;;;2.60;;
3427;SDS011;1727;42.624;23.406;2023-04-25T14:51:16;3.60;;;3.10;;
3427;SDS011;1727;42.624;23.406;2023-04-25T14:53:43;2.67;;;2.30;;
3427;SDS011;1727;42.624;23.406;2023-04-25T14:56:10;2.30;;;2.13;;
3427;SDS011;1727;42.624;23.406;2023-04-25T14:58:38;4.83;;;1.70;;